createdAt,value
2023-04-13T00:04:42.888Z,99219.06
2023-04-13T00:09:47.162Z,99219.47
2023-04-13T00:14:50.835Z,99222.03
2023-04-13T00:19:57.621Z,99224.63
2023-04-13T00:24:59.798Z,99220.28
2023-04-13T00:30:01.638Z,99202.28
2023-04-13T00:35:07.267Z,99195.66
2023-04-13T00:40:09.584Z,99198.38
2023-04-13T00:45:13.480Z,99203.38
2023-04-13T00:50:18.409Z,99188.13
2023-04-13T00:55:25.014Z,99194.53
2023-04-13T01:00:29.009Z,99184.94
2023-04-13T01:05:37.551Z,99196.97
2023-04-13T01:10:52.382Z,99181.19
2023-04-13T01:16:02.164Z,99187.31
2023-04-13T01:21:04.653Z,99178.59
2023-04-13T01:26:08.858Z,99176.47
2023-04-13T01:31:13.904Z,99187.72
2023-04-13T01:36:17.050Z,99174.25
2023-04-13T01:41:19.784Z,99183.38
2023-04-13T01:46:26.539Z,99183.13
2023-04-13T01:51:42.767Z,99169.78
2023-04-13T01:56:48.258Z,99161.56
2023-04-13T02:01:49.965Z,99156.94
2023-04-13T02:06:51.740Z,99154.78
2023-04-13T02:11:59.888Z,99148.06
2023-04-13T02:17:01.504Z,99139.97
2023-04-13T02:22:03.169Z,99143.97
2023-04-13T02:27:04.741Z,99140.94
2023-04-13T02:32:07.904Z,99141.09
2023-04-13T02:37:09.645Z,99142.03
2023-04-13T02:42:12.097Z,99145.25
2023-04-13T02:47:13.673Z,99146.94
2023-04-13T02:52:15.728Z,99142.75
2023-04-13T02:57:28.487Z,99143.16
2023-04-13T03:02:31.851Z,99154.97
2023-04-13T03:07:34.208Z,99152.28
2023-04-13T03:12:36.880Z,99163.53
2023-04-13T03:17:41.417Z,99152.56
2023-04-13T03:22:45.306Z,99165.47
2023-04-13T03:27:47.110Z,99165.59
2023-04-13T03:32:52.489Z,99169.50
2023-04-13T03:37:57.348Z,99173.28
2023-04-13T03:43:06.511Z,99181.44
2023-04-13T03:48:11.926Z,99191.03
2023-04-13T03:53:13.632Z,99192.47
2023-04-13T03:58:18.853Z,99191.16
2023-04-13T04:03:22.314Z,99200.75
2023-04-13T04:08:33.295Z,99195.06
2023-04-13T04:13:39.128Z,99207.66
2023-04-13T04:18:47.628Z,99212.84
2023-04-13T04:23:52.273Z,99212.84
2023-04-13T04:29:02.305Z,99212.84
2023-04-13T04:34:05.875Z,99211.19
2023-04-13T04:39:10.046Z,99224.09
2023-04-13T04:44:24.991Z,99228.25
2023-04-13T04:49:28.162Z,99236.19
2023-04-13T04:54:30.557Z,99235.59
2023-04-13T04:59:32.178Z,99233.22
2023-04-13T05:04:38.873Z,99242.34
2023-04-13T05:09:42.186Z,99237.28
2023-04-13T05:14:48.595Z,99245.56
2023-04-13T05:19:52.857Z,99242.97
2023-04-13T05:24:58.548Z,99250.91
2023-04-13T05:30:03.528Z,99244.38
2023-04-13T05:35:06.119Z,99225.53
2023-04-13T05:40:11.943Z,99225.66
2023-04-13T05:45:16.771Z,99241.31
2023-04-13T05:50:33.062Z,99246.16
2023-04-13T05:55:35.425Z,99241.31
2023-04-13T06:00:39.983Z,99257.78
2023-04-13T06:05:46.895Z,99260.06
2023-04-13T06:10:49.916Z,99271.41
2023-04-13T06:15:52.846Z,99279.47
2023-04-13T06:20:55.251Z,99291.69
2023-04-13T06:25:57.679Z,99302.34
2023-04-13T06:31:16.682Z,99288.72
2023-04-13T06:36:21.077Z,99286.44
2023-04-13T06:41:23.124Z,99298.28
2023-04-13T06:46:25.807Z,99288.06
2023-04-13T06:51:32.046Z,99289.41
2023-04-13T06:56:34.449Z,99289.84
2023-04-13T07:01:36.190Z,99275.91
2023-04-13T07:06:38.838Z,99276.25
2023-04-13T07:11:41.114Z,99279.13
2023-04-13T07:16:42.782Z,99279.47
2023-04-13T07:21:44.342Z,99265.50
2023-04-13T07:26:46.365Z,99268.03
2023-04-13T07:31:48.531Z,99257.53
2023-04-13T07:36:50.498Z,99237.06
2023-04-13T07:41:56.519Z,99224.34
2023-04-13T07:47:14.054Z,99211.50
2023-04-13T07:52:19.363Z,99250.09
2023-04-13T07:57:22.349Z,99224.09
2023-04-13T08:02:30.791Z,99202.88
2023-04-13T08:07:34.014Z,99229.38
2023-04-13T08:12:36.743Z,99208.72
2023-04-13T08:17:38.706Z,99229.56
2023-04-13T08:22:41.265Z,99226.22
2023-04-13T08:27:43.253Z,99274.09
2023-04-13T08:32:48.400Z,99308.69
2023-04-13T08:37:50.486Z,99318.41
2023-04-13T08:42:55.426Z,99327.28
2023-04-13T08:47:58.829Z,99322.75
2023-04-13T08:53:01.008Z,99325.16
2023-04-13T08:58:04.154Z,99318.22
2023-04-13T09:03:09.698Z,99349.34
2023-04-13T09:08:19.699Z,99349.00
2023-04-13T09:13:22.795Z,99357.97
2023-04-13T09:18:24.559Z,99386.41
2023-04-13T09:23:32.569Z,99398.38
2023-04-13T09:28:34.301Z,99401.97
2023-04-13T09:33:47.293Z,99404.94
2023-04-13T09:38:56.110Z,99410.31
2023-04-13T09:44:00.687Z,99417.78
2023-04-13T09:49:25.576Z,99425.00
2023-04-13T09:54:28.524Z,99431.00
2023-04-13T09:59:32.504Z,99430.44
2023-04-13T10:04:34.715Z,99406.81
2023-04-13T10:09:36.708Z,99404.44
2023-04-13T10:14:41.037Z,99391.78
2023-04-13T10:19:48.388Z,99395.50
2023-04-13T10:24:52.417Z,99381.72
2023-04-13T10:29:55.144Z,99361.75
2023-04-13T10:34:56.980Z,99352.69
2023-04-13T10:40:10.384Z,99329.81
2023-04-13T10:45:26.606Z,99321.22
2023-04-13T10:50:28.375Z,99284.66
2023-04-13T10:55:30.316Z,99300.59
2023-04-13T11:00:45.624Z,99307.81
2023-04-13T11:05:56.557Z,99317.97
2023-04-13T11:10:58.084Z,99288.25
2023-04-13T11:16:06.805Z,99279.81
2023-04-13T11:21:16.397Z,99268.50
2023-04-13T11:26:17.922Z,99276.88
2023-04-13T11:31:19.453Z,99278.66
2023-04-13T11:36:23.657Z,99266.69
2023-04-13T11:41:27.231Z,99261.59
2023-04-13T11:46:29.141Z,99256.38
2023-04-13T11:51:32.441Z,99258.53
2023-04-13T11:56:34.197Z,99273.91
2023-04-13T12:01:36.693Z,99278.59
2023-04-13T12:06:44.320Z,99259.44
2023-04-13T12:11:50.275Z,99217.94
2023-04-13T12:17:06.260Z,99245.28
2023-04-13T12:22:20.468Z,99224.59
2023-04-13T12:27:22.139Z,99242.09
2023-04-13T12:32:24.900Z,99257.41
2023-04-13T12:37:26.523Z,99322.16
2023-04-13T12:42:28.400Z,99340.91
2023-04-13T12:47:29.962Z,99323.09
2023-04-13T12:52:32.396Z,99291.28
2023-04-13T12:57:34.306Z,99282.81
2023-04-13T13:02:36.486Z,99252.19
2023-04-13T13:07:40.719Z,99246.16
2023-04-13T13:12:42.495Z,99269.84
2023-04-13T13:17:44.255Z,99262.66
2023-04-13T13:22:47.240Z,99266.50
2023-04-13T13:32:53.287Z,99282.88
2023-04-13T13:37:57.306Z,99279.28
2023-04-13T13:42:59.134Z,99293.72
2023-04-13T13:48:04.963Z,99278.06
2023-04-13T13:53:14.471Z,99269.56
2023-04-13T13:58:17.214Z,99276.16
2023-04-13T14:03:19.016Z,99274.50
2023-04-13T14:08:20.761Z,99274.50
2023-04-13T14:13:23.245Z,99279.19
2023-04-13T14:18:25.005Z,99278.13
2023-04-13T14:23:26.573Z,99271.41
2023-04-13T14:28:28.133Z,99242.56
2023-04-13T14:33:29.641Z,99241.19
2023-04-13T14:38:31.173Z,99229.34
2023-04-13T14:43:32.738Z,99229.59
2023-04-13T14:48:34.262Z,99237.75
2023-04-13T14:53:35.973Z,99226.47
2023-04-13T14:58:37.634Z,99212.44
2023-04-13T15:03:39.602Z,99222.13
2023-04-13T15:08:41.503Z,99228.72
2023-04-13T15:13:45.199Z,99237.06
2023-04-13T15:18:46.799Z,99239.00
2023-04-13T15:23:48.321Z,99258.28
2023-04-13T15:28:49.862Z,99264.53
2023-04-13T15:33:51.825Z,99254.13
2023-04-13T15:38:53.692Z,99257.44
2023-04-13T15:44:02.144Z,99264.63
2023-04-13T15:49:03.804Z,99271.47
2023-04-13T15:54:05.558Z,99292.56
2023-04-13T15:59:07.156Z,99323.84
2023-04-13T16:04:08.765Z,99354.63
2023-04-13T16:09:10.731Z,99383.28
2023-04-13T16:14:17.516Z,99402.78
2023-04-13T16:19:20.969Z,99396.84
2023-04-13T16:24:23.050Z,99383.94
2023-04-13T16:29:24.871Z,99396.22
2023-04-13T16:34:27.950Z,99395.22
2023-04-13T16:39:29.488Z,99390.28
2023-04-13T16:44:31.060Z,99384.75
2023-04-13T16:49:33.494Z,99393.13
2023-04-13T16:54:35.066Z,99391.09
2023-04-13T16:59:36.577Z,99385.69
2023-04-13T17:04:38.481Z,99380.97
2023-04-13T17:09:40.022Z,99363.59
2023-04-13T17:14:41.564Z,99365.75
2023-04-13T17:19:43.217Z,99360.66
2023-04-13T17:24:44.755Z,99364.34
2023-04-13T17:29:46.351Z,99352.19
2023-04-13T17:34:48.727Z,99355.41
2023-04-13T17:39:51.427Z,99351.63
2023-04-13T17:44:58.881Z,99358.19
2023-04-13T17:50:00.739Z,99368.06
2023-04-13T17:55:02.253Z,99383.38
2023-04-13T18:00:04.249Z,99375.63
2023-04-13T18:05:07.275Z,99376.56
2023-04-13T18:10:09.357Z,99380.44
2023-04-13T18:15:10.994Z,99396.13
2023-04-13T18:20:12.629Z,99393.03
2023-04-13T18:25:14.223Z,99413.81
2023-04-13T18:30:28.917Z,99413.00
2023-04-13T18:35:30.454Z,99419.88
2023-04-13T18:40:34.427Z,99436.03
2023-04-13T18:45:36.001Z,99445.25
2023-04-13T18:50:38.289Z,99464.03
2023-04-13T18:55:40.207Z,99473.50
2023-04-13T19:00:41.761Z,99490.19
2023-04-13T19:05:43.419Z,99509.78
2023-04-13T19:10:45.098Z,99507.53
2023-04-13T19:15:47.003Z,99506.38
2023-04-13T19:20:49.825Z,99500.97
2023-04-13T19:25:51.463Z,99512.56
2023-04-13T19:30:53.009Z,99510.38
2023-04-13T19:35:54.550Z,99514.69
2023-04-13T19:40:57.660Z,99517.34
2023-04-13T19:45:59.245Z,99517.22
2023-04-13T19:51:01.254Z,99517.72
2023-04-13T19:56:05.240Z,99513.00
2023-04-13T20:01:07.817Z,99518.69
2023-04-13T20:06:09.503Z,99518.97
2023-04-13T20:11:14.347Z,99519.19
2023-04-13T20:16:17.226Z,99523.19
2023-04-13T20:21:18.783Z,99523.44
2023-04-13T20:26:22.481Z,99521.59
2023-04-13T20:31:28.944Z,99524.50
2023-04-13T20:36:31.383Z,99531.16
2023-04-13T20:41:34.837Z,99531.16
2023-04-13T20:46:36.843Z,99534.03
2023-04-13T20:51:39.710Z,99540.66
2023-04-13T20:56:42.257Z,99544.00
2023-04-13T21:01:44.163Z,99546.88
2023-04-13T21:06:46.821Z,99562.25
2023-04-13T21:11:48.428Z,99557.03
2023-04-13T21:16:54.342Z,99551.34
2023-04-13T21:21:57.468Z,99557.13
2023-04-13T21:26:58.978Z,99566.25
2023-04-13T21:32:02.287Z,99553.72
2023-04-13T21:37:03.956Z,99560.31
2023-04-13T21:42:05.658Z,99560.88
2023-04-13T21:47:07.182Z,99556.66
2023-04-13T21:52:09.636Z,99557.25
2023-04-13T21:57:11.617Z,99568.25
2023-04-13T22:02:13.194Z,99564.47
2023-04-13T22:07:14.833Z,99569.63
2023-04-13T22:12:16.532Z,99575.63
2023-04-13T22:17:18.042Z,99571.50
2023-04-13T22:22:19.637Z,99566.03
2023-04-13T22:27:21.774Z,99567.84
2023-04-13T22:32:23.472Z,99561.16
2023-04-13T22:37:31.606Z,99559.88
2023-04-13T22:42:33.162Z,99556.72
2023-04-13T22:47:35.003Z,99562.72
2023-04-13T22:52:36.682Z,99582.16
2023-04-13T22:57:38.219Z,99585.03
2023-04-13T23:02:40.831Z,99601.25
2023-04-13T23:07:42.554Z,99613.28
2023-04-13T23:12:44.152Z,99617.84
2023-04-13T23:17:45.764Z,99603.31
2023-04-13T23:22:47.931Z,99614.50
2023-04-13T23:27:49.450Z,99614.63
2023-04-13T23:32:51.128Z,99617.06
2023-04-13T23:37:52.692Z,99620.53
2023-04-13T23:42:59.152Z,99622.31
2023-04-13T23:48:00.809Z,99614.84
2023-04-13T23:53:02.489Z,99616.66
2023-04-13T23:58:04.123Z,99619.44
